Monday, December 16, 2019, 6:26 AM CST
Back to Local

KFTW, Fort Worth Meacham International .

Location: Fort Worth, TX, United States Lat: 32.833
Local Time: 6:26 AM CST (12:26 GMT) Lon: -97.367
Time Zone: US/Central Elev: 708 ft

Show me the last for .
Show Decoded

2019-12-16 05:53 METAR KFTW 161153Z 32010KT 8SM OVC007 03/02 A2995 RMK AO2 SLP140 60000 T00280022
                 10044 20028 51015 =
2019-12-16 04:53 METAR KFTW 161053Z 32013KT 4SM BR OVC007 03/02 A2993 RMK AO2 CIG 006V010 SLP134
                 T00280022 =
2019-12-16 03:53 METAR KFTW 160953Z 33011G19KT 8SM OVC007 03/02 A2992 RMK AO2 RAE00 CIG 005V010
                 SLP128 P0000 T00330022 =
2019-12-16 02:53 METAR KFTW 160853Z 33011KT 3SM -RA BR BKN006 OVC009 03/03 A2990 RMK AO2 RAB39
                 CIG 004V008 SLP122 P0000 60000 T00330028 53003 =
2019-12-16 01:53 METAR KFTW 160753Z 34008KT 4SM BR OVC008 03/03 A2988 RMK AO2 SLP116 T00330028 =
2019-12-16 01:27 METAR KFTW 160727Z 34010KT 7SM OVC008 04/03 A2988 RMK AO2 T00390028 =
2019-12-16 00:53 METAR KFTW 160653Z 35012KT 10SM OVC010 04/02 A2988 RMK AO2 SLP116 T00440022 =
2019-12-16 00:30 METAR KFTW 160630Z 35007KT 10SM OVC010 04/02 A2989 RMK AO2 T00440022 =
2019-12-15 23:53 METAR KFTW 160553Z 34009KT 10SM OVC009 03/03 A2989 RMK AO2 SLP120 T00330028
                 10122 20033 402220033 50009 =
2019-12-15 22:53 METAR KFTW 160453Z 34011KT 10SM OVC009 05/03 A2990 RMK AO2 SLP122 T00500033 =
2019-12-15 21:53 METAR KFTW 160353Z 35012KT 9SM OVC008 06/04 A2988 RMK AO2 SLP115 T00610044 =
2019-12-15 21:34 METAR KFTW 160334Z 36014G22KT 8SM OVC009 06/05 A2987 RMK AO2 T00610050 =
2019-12-15 20:53 METAR KFTW 160253Z 36014G20KT 9SM OVC010 07/05 A2986 RMK AO2 SLP112 T00720050
                 51017 =
2019-12-15 19:53 METAR KFTW 160153Z 35013KT 10SM OVC011 08/06 A2986 RMK AO2 SLP110 T00780056 =
2019-12-15 19:39 METAR KFTW 160139Z 35011G19KT 10SM BKN012 08/06 A2986 RMK AO2 T00780056 =
2019-12-15 18:53 METAR KFTW 160053Z 34012KT 10SM CLR 09/06 A2985 RMK AO2 SLP105 T00890056 =
2019-12-15 17:53 METAR KFTW 152353Z 33009KT 10SM CLR 12/07 A2981 RMK AO2 SLP092 T01220067 10222
                 20122 53025 =
2019-12-15 16:53 METAR KFTW 152253Z 32010KT 10SM CLR 17/07 A2979 RMK AO2 SLP083 T01670067 =
2019-12-15 15:53 METAR KFTW 152153Z 32012KT 10SM CLR 21/07 A2975 RMK AO2 SLP071 T02060067 =
2019-12-15 14:53 METAR KFTW 152053Z 33008KT 10SM CLR 22/09 A2974 RMK AO2 SLP066 T02170089 55006 =
2019-12-15 13:53 METAR KFTW 151953Z 32009KT 10SM CLR 22/06 A2973 RMK AO2 SLP064 T02220061 =
2019-12-15 12:53 METAR KFTW 151853Z 24004KT 10SM CLR 20/09 A2974 RMK AO2 SLP068 T02000094 =
2019-12-15 11:53 METAR KFTW 151753Z 22006KT 10SM CLR 18/10 A2976 RMK AO2 SLP073 T01780100 10183
                 20106 50006 =
2019-12-15 10:53 METAR KFTW 151653Z 20005KT 10SM CLR 16/11 A2977 RMK AO2 SLP079 T01610106 =
2019-12-15 09:53 METAR KFTW 151553Z 18011KT 9SM FEW007 14/11 A2976 RMK AO2 SLP076 T01390111 =
2019-12-15 09:39 METAR KFTW 151539Z 19007KT 8SM FEW006 13/11 A2976 RMK AO2 T01280106 =
2019-12-15 09:18 METAR KFTW 151518Z 17008KT 6SM BR BKN005 12/11 A2975 RMK AO2 T01170106 =
2019-12-15 08:53 METAR KFTW 151453Z 17008KT 5SM BR OVC004 12/11 A2974 RMK AO2 SLP067 T01170111
                 53011 =
2019-12-15 08:14 METAR KFTW 151414Z 17009KT 3SM BR OVC002 11/11 A2972 RMK AO2 T01110111 =
2019-12-15 08:07 METAR KFTW 151407Z 17009KT 2 1/2SM BR OVC002 11/11 A2972 RMK AO2 T01110111 =
2019-12-15 08:00 METAR KFTW 151400Z 17009KT 2SM BR OVC001 11/11 A2972 RMK AO2 T01110111 =
2019-12-15 07:53 METAR KFTW 151353Z 16008KT 1 3/4SM BR OVC001 11/11 A2972 RMK AO2 SLP061
                 T01110111 =
2019-12-15 06:53 METAR KFTW 151253Z 16011KT 1 1/4SM BR OVC001 11/11 A2971 RMK AO2 SLP059
                 T01060106 =

Support USWX by starting your Amazon purchase here.